createdAt,value
2022-11-28T00:01:36.932Z,85.07
2022-11-28T00:04:06.160Z,85.17
2022-11-28T00:06:36.785Z,85.05
2022-11-28T00:09:03.958Z,85.17
2022-11-28T00:11:30.565Z,84.92
2022-11-28T00:13:57.140Z,85.14
2022-11-28T00:16:24.662Z,85.01
2022-11-28T00:18:53.725Z,85.03
2022-11-28T00:21:23.021Z,85.02
2022-11-28T00:23:50.697Z,85.08
2022-11-28T00:26:21.029Z,84.76
2022-11-28T00:28:47.953Z,84.41
2022-11-28T00:31:15.637Z,84.91
2022-11-28T00:33:42.581Z,84.97
2022-11-28T00:36:09.963Z,84.66
2022-11-28T00:38:38.047Z,84.85
2022-11-28T00:41:06.758Z,84.81
2022-11-28T00:43:34.259Z,84.69
2022-11-28T00:46:01.204Z,84.63
2022-11-28T00:48:28.235Z,84.84
2022-11-28T00:50:56.176Z,84.69
2022-11-28T00:53:22.857Z,84.60
2022-11-28T00:55:50.835Z,84.66
2022-11-28T00:58:17.414Z,84.52
2022-11-28T01:00:44.070Z,84.61
2022-11-28T01:03:10.704Z,84.64
2022-11-28T01:05:41.041Z,84.60
2022-11-28T01:08:07.763Z,84.47
2022-11-28T01:10:34.401Z,84.44
2022-11-28T01:13:02.350Z,84.48
2022-11-28T01:15:29.010Z,83.87
2022-11-28T01:17:55.623Z,84.53
2022-11-28T01:20:22.289Z,84.32
2022-11-28T01:22:48.909Z,84.42
2022-11-28T01:25:15.758Z,84.31
2022-11-28T01:27:42.409Z,84.06
2022-11-28T01:30:10.814Z,84.01
2022-11-28T01:32:37.497Z,84.23
2022-11-28T01:35:04.806Z,84.25
2022-11-28T01:37:31.642Z,84.48
2022-11-28T01:39:58.449Z,84.12
2022-11-28T01:42:25.022Z,84.18
2022-11-28T01:45:15.826Z,84.01
2022-11-28T01:47:43.660Z,83.94
2022-11-28T01:50:12.784Z,83.87
2022-11-28T01:52:43.336Z,84.04
2022-11-28T01:55:12.655Z,84.23
2022-11-28T01:57:39.625Z,83.95
2022-11-28T02:00:08.974Z,83.56
2022-11-28T02:02:39.329Z,83.89
2022-11-28T02:05:06.823Z,84.03
2022-11-28T02:07:34.437Z,83.84
2022-11-28T02:10:03.361Z,83.87
2022-11-28T02:12:45.648Z,83.94
2022-11-28T02:15:22.954Z,83.63
2022-11-28T02:18:06.807Z,83.73
2022-11-28T02:21:02.762Z,83.72
2022-11-28T02:23:51.922Z,83.88
2022-11-28T02:26:48.480Z,83.80
2022-11-28T02:29:37.439Z,83.93
2022-11-28T02:32:17.275Z,83.68
2022-11-28T02:34:54.509Z,83.77
2022-11-28T02:37:29.052Z,83.77
2022-11-28T02:40:07.301Z,83.71
2022-11-28T02:42:43.129Z,83.79
2022-11-28T02:45:15.037Z,83.59
2022-11-28T02:47:48.646Z,83.83
2022-11-28T02:50:22.364Z,83.71
2022-11-28T02:52:51.974Z,83.74
2022-11-28T02:55:19.352Z,83.70
2022-11-28T02:57:48.808Z,83.56
2022-11-28T03:00:27.726Z,83.65
2022-11-28T03:03:12.665Z,83.66
2022-11-28T03:05:46.122Z,83.78
2022-11-28T03:08:30.365Z,83.67
2022-11-28T03:11:06.193Z,83.55
2022-11-28T03:13:41.133Z,83.58
2022-11-28T03:16:17.679Z,83.30
2022-11-28T03:18:55.465Z,83.52
2022-11-28T03:21:30.540Z,83.46
2022-11-28T03:24:01.310Z,83.47
2022-11-28T03:26:38.664Z,83.48
2022-11-28T03:29:13.518Z,83.39
2022-11-28T03:31:45.859Z,83.43
2022-11-28T03:34:19.813Z,83.02
2022-11-28T03:36:51.857Z,83.48
2022-11-28T03:39:23.343Z,83.06
2022-11-28T03:41:54.106Z,83.27
2022-11-28T03:44:26.744Z,83.03
2022-11-28T03:46:57.705Z,83.09
2022-11-28T03:49:30.277Z,83.34
2022-11-28T03:52:01.467Z,83.35
2022-11-28T03:54:34.283Z,83.16
2022-11-28T03:57:07.843Z,83.30
2022-11-28T03:59:36.918Z,83.39
2022-11-28T04:02:11.213Z,83.40
2022-11-28T04:04:48.449Z,83.32
2022-11-28T04:07:24.967Z,83.26
2022-11-28T04:10:00.021Z,83.48
2022-11-28T04:12:37.565Z,83.33
2022-11-28T04:15:09.129Z,83.36
2022-11-28T04:17:39.790Z,83.71
2022-11-28T04:20:12.191Z,83.74
2022-11-28T04:22:44.564Z,83.85
2022-11-28T04:25:13.897Z,83.61
2022-11-28T04:27:46.681Z,83.94
2022-11-28T04:30:14.328Z,84.18
2022-11-28T04:32:46.697Z,84.21
2022-11-28T04:35:18.757Z,84.03
2022-11-28T04:37:48.342Z,84.18
2022-11-28T04:40:17.821Z,84.05
2022-11-28T04:42:52.844Z,84.40
2022-11-28T04:45:26.534Z,84.39
2022-11-28T04:47:53.070Z,84.40
2022-11-28T04:50:23.472Z,84.26
2022-11-28T04:52:54.781Z,84.52
2022-11-28T04:55:31.241Z,84.40
2022-11-28T04:58:06.076Z,84.21
2022-11-28T05:00:34.379Z,84.41
2022-11-28T05:03:01.426Z,84.43
2022-11-28T05:05:29.492Z,84.17
2022-11-28T05:07:57.636Z,84.30
2022-11-28T05:10:24.250Z,84.49
2022-11-28T05:12:50.882Z,84.61
2022-11-28T05:15:17.601Z,84.46
2022-11-28T05:17:44.420Z,84.41
2022-11-28T05:20:11.636Z,84.45
2022-11-28T05:22:39.674Z,84.31
2022-11-28T05:25:07.051Z,84.35
2022-11-28T05:27:33.646Z,84.22
2022-11-28T05:30:00.272Z,84.42
2022-11-28T05:32:29.313Z,84.02
2022-11-28T05:34:55.939Z,83.91
2022-11-28T05:37:22.610Z,83.92
2022-11-28T05:39:50.607Z,83.85
2022-11-28T05:42:17.554Z,83.85
2022-11-28T05:44:44.119Z,83.78
2022-11-28T05:47:10.757Z,83.70
2022-11-28T05:49:37.657Z,83.60
2022-11-28T05:52:04.292Z,83.40
2022-11-28T05:54:30.839Z,83.26
2022-11-28T05:56:58.999Z,83.01
2022-11-28T05:59:25.657Z,83.14
2022-11-28T06:01:52.257Z,83.09
2022-11-28T06:04:18.982Z,82.80
2022-11-28T06:06:45.621Z,82.68
2022-11-28T06:09:12.197Z,82.51
2022-11-28T06:11:38.804Z,82.63
2022-11-28T06:14:06.773Z,82.39
2022-11-28T06:16:33.431Z,82.56
2022-11-28T06:19:01.563Z,82.60
2022-11-28T06:21:29.809Z,82.51
2022-11-28T06:23:57.227Z,82.72
2022-11-28T06:26:25.194Z,82.46
2022-11-28T06:28:52.028Z,82.39
2022-11-28T06:31:22.056Z,82.32
2022-11-28T06:33:48.931Z,82.69
2022-11-28T06:36:19.364Z,82.75
2022-11-28T06:38:46.512Z,82.43
2022-11-28T06:41:16.208Z,82.65
2022-11-28T06:43:43.152Z,82.73
2022-11-28T06:46:15.996Z,82.76
2022-11-28T06:48:44.622Z,82.74
2022-11-28T06:51:11.988Z,82.76
2022-11-28T06:53:39.383Z,82.90
2022-11-28T06:56:07.767Z,82.92
2022-11-28T06:58:35.328Z,83.00
2022-11-28T07:01:10.575Z,83.04
2022-11-28T07:03:37.752Z,82.99
2022-11-28T07:06:07.258Z,83.07
2022-11-28T07:08:34.409Z,82.90
2022-11-28T07:11:08.263Z,83.12
2022-11-28T07:13:35.092Z,83.12
2022-11-28T07:16:01.653Z,83.10
2022-11-28T07:18:28.417Z,82.75
2022-11-28T07:20:54.986Z,82.99
2022-11-28T07:23:22.959Z,83.09
2022-11-28T07:25:49.621Z,82.54
2022-11-28T07:28:18.503Z,82.76
2022-11-28T07:30:48.616Z,82.69
2022-11-28T07:33:15.186Z,82.63
2022-11-28T07:35:41.864Z,82.58
2022-11-28T07:38:08.542Z,82.71
2022-11-28T07:40:36.522Z,82.45
2022-11-28T07:43:03.147Z,82.72
2022-11-28T07:45:47.329Z,82.44
2022-11-28T07:48:16.266Z,82.53
2022-11-28T07:50:42.899Z,82.18
2022-11-28T07:53:09.461Z,82.62
2022-11-28T07:55:37.466Z,82.38
2022-11-28T07:58:04.493Z,82.34
2022-11-28T08:00:32.116Z,82.55
2022-11-28T08:02:58.712Z,82.43
2022-11-28T08:05:25.457Z,82.59
2022-11-28T08:07:52.230Z,82.63
2022-11-28T08:10:19.178Z,82.40
2022-11-28T08:12:47.216Z,82.42
2022-11-28T08:15:13.946Z,82.12
2022-11-28T08:17:40.811Z,82.02
2022-11-28T08:20:08.707Z,82.30
2022-11-28T08:22:35.462Z,82.44
2022-11-28T08:25:02.254Z,82.17
2022-11-28T08:27:28.900Z,82.22
2022-11-28T08:29:56.971Z,82.25
2022-11-28T08:32:23.617Z,82.30
2022-11-28T08:34:50.366Z,82.30
2022-11-28T08:37:17.004Z,81.65
2022-11-28T08:39:43.914Z,82.29
2022-11-28T08:42:10.886Z,81.69
2022-11-28T08:44:37.515Z,82.24
2022-11-28T08:47:05.853Z,81.96
2022-11-28T08:49:32.541Z,81.89
2022-11-28T08:51:59.197Z,81.80
2022-11-28T08:54:26.075Z,81.97
2022-11-28T08:56:52.702Z,81.85
2022-11-28T08:59:19.543Z,82.02
2022-11-28T09:01:46.299Z,81.67
2022-11-28T09:04:14.418Z,81.71
2022-11-28T09:06:41.210Z,81.57
2022-11-28T09:09:07.938Z,81.38
2022-11-28T09:11:34.531Z,81.31
2022-11-28T09:14:01.280Z,80.97
2022-11-28T09:16:28.034Z,80.77
2022-11-28T09:18:54.754Z,80.83
2022-11-28T09:21:22.970Z,80.53
2022-11-28T09:23:49.650Z,80.23
2022-11-28T09:26:18.568Z,80.78
2022-11-28T09:28:45.665Z,80.23
2022-11-28T09:31:13.242Z,79.93
2022-11-28T09:33:40.673Z,79.67
2022-11-28T09:36:09.674Z,79.77
2022-11-28T09:38:37.939Z,79.89
2022-11-28T09:41:34.289Z,80.01
2022-11-28T09:44:08.237Z,80.08
2022-11-28T09:46:37.279Z,79.98
2022-11-28T09:49:17.883Z,80.01
2022-11-28T09:51:51.423Z,80.18
2022-11-28T09:54:23.076Z,80.00
2022-11-28T09:56:50.513Z,79.37
2022-11-28T09:59:23.261Z,78.48
2022-11-28T10:01:59.492Z,78.89
2022-11-28T10:04:37.214Z,79.09
2022-11-28T10:07:10.921Z,79.55
2022-11-28T10:09:48.996Z,79.08
2022-11-28T10:12:31.997Z,79.14
2022-11-28T10:15:13.264Z,79.10
2022-11-28T10:17:49.554Z,78.79
2022-11-28T10:20:20.896Z,78.63
2022-11-28T10:22:51.956Z,78.50
2022-11-28T10:25:24.675Z,78.75
2022-11-28T10:27:51.443Z,78.75
2022-11-28T10:30:23.924Z,78.33
2022-11-28T10:33:00.512Z,77.98
2022-11-28T10:35:35.821Z,78.60
2022-11-28T10:38:02.791Z,77.48
2022-11-28T10:40:42.733Z,78.20
2022-11-28T10:43:19.330Z,77.63
2022-11-28T10:45:52.527Z,77.12
2022-11-28T10:48:39.447Z,77.53
2022-11-28T10:51:21.302Z,77.48
2022-11-28T10:53:57.184Z,77.59
2022-11-28T10:56:35.697Z,77.42
2022-11-28T10:59:08.655Z,76.69
2022-11-28T11:01:39.650Z,76.98
2022-11-28T11:04:16.940Z,77.29
2022-11-28T11:07:06.890Z,76.95
2022-11-28T11:09:30.679Z,77.36
2022-11-28T11:11:59.418Z,77.07
2022-11-28T11:14:34.154Z,77.01
2022-11-28T11:17:00.879Z,77.37
2022-11-28T11:19:33.322Z,77.75
2022-11-28T11:22:06.152Z,76.65
2022-11-28T11:24:33.060Z,76.41
2022-11-28T11:27:07.002Z,76.37
2022-11-28T11:29:35.398Z,76.09
2022-11-28T11:32:03.778Z,76.32
2022-11-28T11:34:36.561Z,75.88
2022-11-28T11:37:30.124Z,76.27
2022-11-28T11:39:56.931Z,76.04
2022-11-28T11:42:26.711Z,75.67
2022-11-28T11:44:54.092Z,75.63
2022-11-28T11:47:40.646Z,75.63
2022-11-28T11:50:16.795Z,75.94
2022-11-28T11:52:43.668Z,75.65
2022-11-28T11:55:15.356Z,75.83
2022-11-28T11:57:48.212Z,76.02
2022-11-28T12:00:17.966Z,75.62
2022-11-28T12:02:46.869Z,75.78
2022-11-28T12:05:16.420Z,75.04
2022-11-28T12:07:56.584Z,75.65
2022-11-28T12:10:26.311Z,75.45
2022-11-28T12:12:54.583Z,75.46
2022-11-28T12:15:28.253Z,75.26
2022-11-28T12:18:06.545Z,74.73
2022-11-28T12:20:41.873Z,74.09
2022-11-28T12:23:24.975Z,74.62
2022-11-28T12:25:56.248Z,75.04
2022-11-28T12:28:36.462Z,75.18
2022-11-28T12:31:10.945Z,75.02
2022-11-28T12:33:50.925Z,75.31
2022-11-28T12:36:26.023Z,75.43
2022-11-28T12:39:00.369Z,75.52
2022-11-28T12:41:59.712Z,75.37
2022-11-28T12:44:35.875Z,75.12
2022-11-28T12:47:15.459Z,74.86
2022-11-28T12:49:50.450Z,75.38
2022-11-28T12:52:25.682Z,74.75
2022-11-28T12:55:06.960Z,74.84
2022-11-28T12:57:39.915Z,74.84
2022-11-28T13:00:15.204Z,74.86
2022-11-28T13:02:55.005Z,74.79
2022-11-28T13:05:37.712Z,75.20
2022-11-28T13:08:23.722Z,75.31
2022-11-28T13:10:55.649Z,74.82
2022-11-28T13:13:26.737Z,75.10
2022-11-28T13:16:07.426Z,75.10
2022-11-28T13:18:40.538Z,74.77
2022-11-28T13:21:23.374Z,74.88
2022-11-28T13:23:56.142Z,74.60
2022-11-28T13:26:38.405Z,74.75
2022-11-28T13:29:14.120Z,74.91
2022-11-28T13:31:49.152Z,74.42
2022-11-28T13:34:18.150Z,75.10
2022-11-28T13:39:41.955Z,75.40
2022-11-28T13:42:58.932Z,75.06
2022-11-28T13:45:25.137Z,74.79
2022-11-28T13:47:58.482Z,74.55
2022-11-28T13:50:38.303Z,74.53
2022-11-28T13:53:23.891Z,74.79
2022-11-28T13:55:52.422Z,75.02
2022-11-28T13:58:23.618Z,75.05
2022-11-28T14:01:05.422Z,74.72
2022-11-28T14:03:36.646Z,75.13
2022-11-28T14:06:07.062Z,75.42
2022-11-28T14:08:37.142Z,75.63
2022-11-28T14:11:57.491Z,75.24
2022-11-28T14:14:43.205Z,75.69
2022-11-28T14:17:25.236Z,75.52
2022-11-28T14:20:03.278Z,75.79
2022-11-28T14:22:43.063Z,75.63
2022-11-28T14:25:16.714Z,76.12
2022-11-28T14:27:49.729Z,76.22
2022-11-28T14:30:26.100Z,76.59
2022-11-28T14:32:57.355Z,76.19
2022-11-28T14:36:04.535Z,76.29
2022-11-28T14:38:42.921Z,76.34
2022-11-28T14:41:10.881Z,76.67
2022-11-28T14:43:39.206Z,76.52
2022-11-28T14:46:24.960Z,76.66
2022-11-28T14:49:24.959Z,76.82
2022-11-28T14:55:14.973Z,76.90
2022-11-28T14:57:55.203Z,77.28
2022-11-28T15:00:24.624Z,77.40
2022-11-28T15:03:07.518Z,77.35
2022-11-28T15:05:39.941Z,77.32
2022-11-28T15:08:36.820Z,77.76
2022-11-28T15:11:20.797Z,78.00
2022-11-28T15:14:01.989Z,77.95
2022-11-28T15:16:30.704Z,78.09
2022-11-28T15:19:03.891Z,78.03
2022-11-28T15:21:30.677Z,78.05
2022-11-28T15:23:58.757Z,78.13
2022-11-28T15:26:29.080Z,78.26
2022-11-28T15:29:08.737Z,78.68
2022-11-28T15:31:35.574Z,78.48
2022-11-28T15:34:02.458Z,78.38
2022-11-28T15:36:30.409Z,78.73
2022-11-28T15:38:58.438Z,78.75
2022-11-28T15:41:27.217Z,78.86
2022-11-28T15:43:54.978Z,78.98
2022-11-28T15:46:29.675Z,79.35
2022-11-28T15:48:56.262Z,79.33
2022-11-28T15:51:28.102Z,79.43
2022-11-28T15:53:55.186Z,79.15
2022-11-28T15:56:23.386Z,79.41
2022-11-28T15:58:50.214Z,79.46
2022-11-28T16:01:19.015Z,79.56
2022-11-28T16:03:52.253Z,79.52
2022-11-28T16:06:20.453Z,79.52
2022-11-28T16:08:52.356Z,79.56
2022-11-28T16:11:21.845Z,79.58
2022-11-28T16:13:51.602Z,79.47
2022-11-28T16:16:21.112Z,79.53
2022-11-28T16:18:55.678Z,79.80
2022-11-28T16:21:24.923Z,79.94
2022-11-28T16:23:51.922Z,79.91
2022-11-28T16:26:24.512Z,79.92
2022-11-28T16:29:00.040Z,79.89
2022-11-28T16:31:28.081Z,79.85
2022-11-28T16:33:55.272Z,80.07
2022-11-28T16:36:24.747Z,79.99
2022-11-28T16:38:54.046Z,79.82
2022-11-28T16:41:23.216Z,79.81
2022-11-28T16:43:53.888Z,80.01
2022-11-28T16:46:23.608Z,80.09
2022-11-28T16:48:55.643Z,80.10
2022-11-28T16:51:36.586Z,80.25
2022-11-28T16:54:31.502Z,80.26
2022-11-28T16:57:08.866Z,80.10
2022-11-28T16:59:35.755Z,80.26
2022-11-28T17:02:04.123Z,80.18
2022-11-28T17:04:31.280Z,80.17
2022-11-28T17:06:59.778Z,80.33
2022-11-28T17:09:26.480Z,80.34
2022-11-28T17:11:58.303Z,80.58
2022-11-28T17:14:24.955Z,80.32
2022-11-28T17:16:51.625Z,80.32
2022-11-28T17:19:19.622Z,80.43
2022-11-28T17:21:49.581Z,80.46
2022-11-28T17:24:17.890Z,80.81
2022-11-28T17:26:44.787Z,80.59
2022-11-28T17:29:13.264Z,80.49
2022-11-28T17:31:40.039Z,80.64
2022-11-28T17:34:09.670Z,80.46
2022-11-28T17:36:37.765Z,80.49
2022-11-28T17:39:05.461Z,80.70
2022-11-28T17:41:32.102Z,80.90
2022-11-28T17:43:58.783Z,80.57
2022-11-28T17:46:25.608Z,80.87
2022-11-28T17:48:52.167Z,80.87
2022-11-28T17:51:18.739Z,81.04
2022-11-28T17:53:46.678Z,81.04
2022-11-28T17:56:13.668Z,80.99
2022-11-28T17:58:40.625Z,81.04
2022-11-28T18:01:09.752Z,81.08
2022-11-28T18:03:36.982Z,81.00
2022-11-28T18:06:03.649Z,80.87
2022-11-28T18:08:30.254Z,80.91
2022-11-28T18:11:05.855Z,80.79
2022-11-28T18:13:32.783Z,81.24
2022-11-28T18:15:59.553Z,81.05
2022-11-28T18:18:26.314Z,81.39
2022-11-28T18:20:52.930Z,81.36
2022-11-28T18:23:19.594Z,81.31
2022-11-28T18:25:46.458Z,81.24
2022-11-28T18:28:18.793Z,81.33
2022-11-28T18:30:47.138Z,81.44
2022-11-28T18:33:15.521Z,81.50
2022-11-28T18:35:42.710Z,81.67
2022-11-28T18:38:09.447Z,81.44
2022-11-28T18:40:36.754Z,81.55
2022-11-28T18:43:03.874Z,81.47
2022-11-28T18:45:32.780Z,81.52
2022-11-28T18:48:00.518Z,81.59
2022-11-28T18:50:27.490Z,81.53
2022-11-28T18:52:54.149Z,81.44
2022-11-28T18:55:20.728Z,81.68
2022-11-28T18:57:47.327Z,81.51
2022-11-28T19:00:15.135Z,81.71
2022-11-28T19:02:43.903Z,81.70
2022-11-28T19:05:10.496Z,81.81
2022-11-28T19:07:37.089Z,81.73
2022-11-28T19:10:04.149Z,81.79
2022-11-28T19:12:30.720Z,81.96
2022-11-28T19:15:02.068Z,82.04
2022-11-28T19:17:29.519Z,81.89
2022-11-28T19:19:57.515Z,81.99
2022-11-28T19:22:24.110Z,81.91
2022-11-28T19:24:50.637Z,81.99
2022-11-28T19:27:17.255Z,82.06
2022-11-28T19:29:44.350Z,82.06
2022-11-28T19:32:11.258Z,81.90
2022-11-28T19:34:37.905Z,82.11
2022-11-28T19:37:05.869Z,81.91
2022-11-28T19:39:32.473Z,81.93
2022-11-28T19:41:59.081Z,81.83
2022-11-28T19:44:25.798Z,82.03
2022-11-28T19:46:52.404Z,82.07
2022-11-28T19:49:21.337Z,82.13
2022-11-28T19:51:48.809Z,82.29
2022-11-28T19:54:17.433Z,82.13
2022-11-28T19:56:44.054Z,82.18
2022-11-28T19:59:10.769Z,82.13
2022-11-28T20:01:38.478Z,82.32
2022-11-28T20:04:05.308Z,82.34
2022-11-28T20:06:32.606Z,82.34
2022-11-28T20:09:02.226Z,82.29
2022-11-28T20:11:32.298Z,82.27
2022-11-28T20:14:01.492Z,82.21
2022-11-28T20:16:29.351Z,82.37
2022-11-28T20:18:56.141Z,82.37
2022-11-28T20:21:22.798Z,82.45
2022-11-28T20:23:51.633Z,82.58
2022-11-28T20:26:20.374Z,82.34
2022-11-28T20:28:48.881Z,82.33
2022-11-28T20:31:21.280Z,82.25
2022-11-28T20:33:48.737Z,82.41
2022-11-28T20:36:17.160Z,82.56
2022-11-28T20:38:43.887Z,82.51
2022-11-28T20:41:12.278Z,82.40
2022-11-28T20:43:39.794Z,82.38
2022-11-28T20:46:10.828Z,82.41
2022-11-28T20:48:38.413Z,82.32
2022-11-28T20:51:07.734Z,82.29
2022-11-28T20:53:34.297Z,82.38
2022-11-28T20:56:01.931Z,82.26
2022-11-28T20:58:28.841Z,82.18
2022-11-28T21:00:56.022Z,82.32
2022-11-28T21:03:24.934Z,82.21
2022-11-28T21:05:55.234Z,82.31
2022-11-28T21:08:24.514Z,82.14
2022-11-28T21:10:51.147Z,82.17
2022-11-28T21:13:17.753Z,82.12
2022-11-28T21:15:45.456Z,82.29
2022-11-28T21:18:12.542Z,82.41
2022-11-28T21:20:42.157Z,82.21
2022-11-28T21:23:09.928Z,82.25
2022-11-28T21:25:37.421Z,82.40
2022-11-28T21:28:04.593Z,82.35
2022-11-28T21:30:31.602Z,82.09
2022-11-28T21:32:58.271Z,82.25
2022-11-28T21:35:24.974Z,82.16
2022-11-28T21:37:52.948Z,82.17
2022-11-28T21:40:19.628Z,82.13
2022-11-28T21:42:46.199Z,82.20
2022-11-28T21:45:12.759Z,82.32
2022-11-28T21:47:39.316Z,82.11
2022-11-28T21:50:07.057Z,82.14
2022-11-28T21:52:33.651Z,82.19
2022-11-28T21:55:01.571Z,82.41
2022-11-28T21:57:28.146Z,82.40
2022-11-28T21:59:54.781Z,82.48
2022-11-28T22:02:24.963Z,82.41
2022-11-28T22:04:54.355Z,82.33
2022-11-28T22:07:21.092Z,82.32
2022-11-28T22:09:47.913Z,82.37
2022-11-28T22:12:15.883Z,82.43
2022-11-28T22:14:42.490Z,82.20
2022-11-28T22:17:09.153Z,82.52
2022-11-28T22:19:35.720Z,82.45
2022-11-28T22:22:02.289Z,82.37
2022-11-28T22:24:28.966Z,82.55
2022-11-28T22:26:55.548Z,82.71
2022-11-28T22:29:23.715Z,82.50
2022-11-28T22:31:50.315Z,82.67
2022-11-28T22:34:16.970Z,82.77
2022-11-28T22:36:43.575Z,82.62
2022-11-28T22:39:10.680Z,82.74
2022-11-28T22:41:37.309Z,82.67
2022-11-28T22:44:04.159Z,82.73
2022-11-28T22:46:32.542Z,83.13
2022-11-28T22:48:59.959Z,83.12
2022-11-28T22:51:27.668Z,82.91
2022-11-28T22:53:55.154Z,83.21
2022-11-28T22:56:22.059Z,83.22
2022-11-28T22:58:48.990Z,83.10
2022-11-28T23:01:17.490Z,83.07
2022-11-28T23:03:46.553Z,83.03
2022-11-28T23:06:14.967Z,83.06
2022-11-28T23:08:41.933Z,83.00
2022-11-28T23:11:10.602Z,82.97
2022-11-28T23:13:38.376Z,83.04
2022-11-28T23:16:10.041Z,82.95
2022-11-28T23:18:36.615Z,83.13
2022-11-28T23:21:04.570Z,83.11
2022-11-28T23:23:31.479Z,83.11
2022-11-28T23:26:04.943Z,82.94
2022-11-28T23:28:32.011Z,82.88
2022-11-28T23:31:04.984Z,82.81
2022-11-28T23:33:31.894Z,82.88
2022-11-28T23:35:58.495Z,82.91
2022-11-28T23:38:26.522Z,83.09
2022-11-28T23:40:56.459Z,83.07
2022-11-28T23:43:23.289Z,83.02
2022-11-28T23:45:49.945Z,82.97
2022-11-28T23:48:16.599Z,82.96
2022-11-28T23:50:43.232Z,83.03
2022-11-28T23:53:09.877Z,82.96
2022-11-28T23:55:37.952Z,82.89
2022-11-28T23:58:04.719Z,83.03
